createdAt,value
2018-12-05T00:02:20.116Z,3.44
2018-12-05T00:04:49.215Z,3.43
2018-12-05T00:07:18.650Z,3.43
2018-12-05T00:09:47.451Z,3.47
2018-12-05T00:12:16.259Z,3.49
2018-12-05T00:14:45.832Z,3.54
2018-12-05T00:17:14.623Z,3.59
2018-12-05T00:19:43.520Z,3.62
2018-12-05T00:22:12.372Z,3.64
2018-12-05T00:24:41.198Z,3.68
2018-12-05T00:27:10.004Z,3.71
2018-12-05T00:29:38.835Z,3.73
2018-12-05T00:32:07.646Z,3.74
2018-12-05T00:34:36.435Z,3.73
2018-12-05T00:37:06.240Z,3.68
2018-12-05T00:39:35.048Z,3.67
2018-12-05T00:42:03.924Z,3.66
2018-12-05T00:44:32.754Z,3.62
2018-12-05T00:47:01.560Z,3.59
2018-12-05T00:49:30.963Z,3.57
2018-12-05T00:52:00.831Z,3.54
2018-12-05T00:54:29.744Z,3.55
2018-12-05T00:56:58.552Z,3.56
2018-12-05T00:59:28.095Z,3.53
2018-12-05T01:01:57.167Z,3.55
2018-12-05T01:04:26.092Z,3.57
2018-12-05T01:06:54.928Z,3.59
2018-12-05T01:09:23.739Z,3.60
2018-12-05T01:11:52.579Z,3.62
2018-12-05T01:14:21.388Z,3.65
2018-12-05T01:16:50.195Z,3.67
2018-12-05T01:19:19.069Z,3.68
2018-12-05T01:21:47.888Z,3.68
2018-12-05T01:24:16.744Z,3.67
2018-12-05T01:26:45.843Z,3.67
2018-12-05T01:29:14.632Z,3.67
2018-12-05T01:31:43.963Z,3.68
2018-12-05T01:34:13.737Z,3.69
2018-12-05T01:36:42.619Z,3.69
2018-12-05T01:39:11.423Z,3.68
2018-12-05T01:41:40.636Z,3.64
2018-12-05T01:44:10.064Z,3.63
2018-12-05T01:46:38.937Z,3.61
2018-12-05T01:49:08.475Z,3.60
2018-12-05T01:51:37.309Z,3.60
2018-12-05T01:54:06.728Z,3.60
2018-12-05T01:56:36.040Z,3.60
2018-12-05T01:59:04.867Z,3.60
2018-12-05T02:01:33.752Z,3.60
2018-12-05T02:04:02.586Z,3.64
2018-12-05T02:06:31.437Z,3.63
2018-12-05T02:09:00.255Z,3.63
2018-12-05T02:11:29.176Z,3.59
2018-12-05T02:13:58.010Z,3.61
2018-12-05T02:16:26.867Z,3.61
2018-12-05T02:18:56.305Z,3.63
2018-12-05T02:21:25.730Z,3.65
2018-12-05T02:23:54.547Z,3.66
2018-12-05T02:26:23.375Z,3.66
2018-12-05T02:28:52.223Z,3.67
2018-12-05T02:31:21.356Z,3.66
2018-12-05T02:33:51.215Z,3.67
2018-12-05T02:36:20.028Z,3.68
2018-12-05T02:38:48.830Z,3.69
2018-12-05T02:41:17.631Z,3.68
2018-12-05T02:43:46.505Z,3.71
2018-12-05T02:46:15.316Z,3.73
2018-12-05T02:48:44.170Z,3.77
2018-12-05T02:51:13.061Z,3.79
2018-12-05T02:53:42.643Z,3.80
2018-12-05T02:56:12.097Z,3.81
2018-12-05T02:58:40.947Z,3.82
2018-12-05T03:01:10.396Z,3.82
2018-12-05T03:03:39.249Z,3.83
2018-12-05T03:06:08.072Z,3.82
2018-12-05T03:08:36.879Z,3.81
2018-12-05T03:11:05.706Z,3.81
2018-12-05T03:13:34.517Z,3.78
2018-12-05T03:16:03.333Z,3.75
2018-12-05T03:18:32.936Z,3.73
2018-12-05T03:21:01.762Z,3.73
2018-12-05T03:23:31.140Z,3.69
2018-12-05T03:26:00.092Z,3.66
2018-12-05T03:28:28.832Z,3.63
2018-12-05T03:30:57.656Z,3.59
2018-12-05T03:33:27.172Z,3.56
2018-12-05T03:35:55.990Z,3.55
2018-12-05T03:38:24.799Z,3.52
2018-12-05T03:40:53.666Z,3.51
2018-12-05T03:43:22.467Z,3.52
2018-12-05T03:45:51.342Z,3.52
2018-12-05T03:48:20.151Z,3.50
2018-12-05T03:50:49.021Z,3.48
2018-12-05T03:53:17.847Z,3.49
2018-12-05T03:55:46.669Z,3.50
2018-12-05T03:58:15.493Z,3.50
2018-12-05T04:00:44.279Z,3.50
2018-12-05T04:03:13.425Z,3.48
2018-12-05T04:05:43.561Z,3.50
2018-12-05T04:08:12.432Z,3.47
2018-12-05T04:10:41.230Z,3.45
2018-12-05T04:13:10.662Z,3.44
2018-12-05T04:15:41.074Z,3.42
2018-12-05T04:18:09.895Z,3.42
2018-12-05T04:20:38.756Z,3.41
2018-12-05T04:23:07.646Z,3.41
2018-12-05T04:25:36.738Z,3.43
2018-12-05T04:28:05.612Z,3.42
2018-12-05T04:30:34.403Z,3.42
2018-12-05T04:33:03.938Z,3.41
2018-12-05T04:35:32.764Z,3.42
2018-12-05T04:38:01.597Z,3.42
2018-12-05T04:40:30.696Z,3.41
2018-12-05T04:42:59.587Z,3.39
2018-12-05T04:45:28.506Z,3.38
2018-12-05T04:47:57.349Z,3.37
2018-12-05T04:50:26.180Z,3.37
2018-12-05T04:52:54.996Z,3.35
2018-12-05T04:55:23.789Z,3.36
2018-12-05T04:57:52.657Z,3.34
2018-12-05T05:00:22.569Z,3.30
2018-12-05T05:02:52.476Z,3.27
2018-12-05T05:05:21.268Z,3.27
2018-12-05T05:07:50.085Z,3.28
2018-12-05T05:10:18.968Z,3.30
2018-12-05T05:12:47.819Z,3.35
2018-12-05T05:15:16.625Z,3.38
2018-12-05T05:17:45.415Z,3.40
2018-12-05T05:20:14.251Z,3.40
2018-12-05T05:22:43.183Z,3.38
2018-12-05T05:25:12.019Z,3.37
2018-12-05T05:27:45.910Z,3.35
2018-12-05T05:30:10.191Z,3.32
2018-12-05T05:32:38.994Z,3.32
2018-12-05T05:35:08.130Z,3.29
2018-12-05T05:37:36.942Z,3.27
2018-12-05T05:40:05.827Z,3.28
2018-12-05T05:42:34.705Z,3.31
2018-12-05T05:45:03.612Z,3.33
2018-12-05T05:47:32.475Z,3.34
2018-12-05T05:50:01.301Z,3.34
2018-12-05T05:52:30.168Z,3.31
2018-12-05T05:54:58.994Z,3.32
2018-12-05T05:57:28.101Z,3.31
2018-12-05T05:59:56.909Z,3.30
2018-12-05T06:02:26.384Z,3.31
2018-12-05T06:04:55.203Z,3.32
2018-12-05T06:07:24.033Z,3.32
2018-12-05T06:09:52.925Z,3.33
2018-12-05T06:12:21.748Z,3.32
2018-12-05T06:14:50.580Z,3.35
2018-12-05T06:17:19.411Z,3.37
2018-12-05T06:19:48.210Z,3.40
2018-12-05T06:22:17.050Z,3.42
2018-12-05T06:24:45.927Z,3.58
2018-12-05T06:27:14.725Z,3.50
2018-12-05T06:29:44.467Z,3.50
2018-12-05T06:32:13.304Z,3.50
2018-12-05T06:34:42.173Z,3.53
2018-12-05T06:37:11.159Z,3.54
2018-12-05T06:39:39.961Z,3.56
2018-12-05T06:42:09.087Z,3.65
2018-12-05T06:44:37.992Z,3.58
2018-12-05T06:47:06.864Z,3.61
2018-12-05T06:49:35.817Z,3.62
2018-12-05T06:52:04.655Z,3.62
2018-12-05T06:54:33.567Z,3.60
2018-12-05T06:57:02.413Z,3.61
2018-12-05T06:59:31.230Z,3.62
2018-12-05T07:02:00.926Z,3.62
2018-12-05T07:04:29.934Z,3.64
2018-12-05T07:06:59.745Z,3.63
2018-12-05T07:09:28.617Z,3.62
2018-12-05T07:11:57.414Z,3.65
2018-12-05T07:14:26.320Z,3.65
2018-12-05T07:16:55.116Z,3.67
2018-12-05T07:19:24.402Z,3.67
2018-12-05T07:21:53.292Z,3.68
2018-12-05T07:24:22.157Z,3.70
2018-12-05T07:26:50.971Z,3.75
2018-12-05T07:29:19.775Z,3.75
2018-12-05T07:31:48.614Z,3.76
2018-12-05T07:34:17.467Z,3.78
2018-12-05T07:36:46.291Z,3.79
2018-12-05T07:39:15.113Z,3.80
2018-12-05T07:41:43.987Z,3.81
2018-12-05T07:44:13.324Z,3.82
2018-12-05T07:46:42.151Z,3.81
2018-12-05T07:49:10.967Z,3.86
2018-12-05T07:51:39.958Z,3.86
2018-12-05T07:54:09.051Z,3.86
2018-12-05T07:56:37.842Z,3.89
2018-12-05T07:59:06.648Z,3.97
2018-12-05T08:01:35.463Z,3.98
2018-12-05T08:04:04.302Z,4.02
2018-12-05T08:06:33.789Z,4.02
2018-12-05T08:09:02.652Z,4.01
2018-12-05T08:11:31.526Z,4.00
2018-12-05T08:14:00.399Z,4.00
2018-12-05T08:16:29.250Z,4.03
2018-12-05T08:18:58.055Z,4.07
2018-12-05T08:21:27.072Z,4.13
2018-12-05T08:23:55.875Z,4.21
2018-12-05T08:26:25.733Z,4.28
2018-12-05T08:28:54.844Z,4.36
2018-12-05T08:31:23.992Z,4.44
2018-12-05T08:33:52.829Z,4.47
2018-12-05T08:36:21.685Z,4.52
2018-12-05T08:38:51.838Z,4.69
2018-12-05T08:41:20.949Z,4.74
2018-12-05T08:43:49.793Z,4.72
2018-12-05T08:46:19.660Z,4.78
2018-12-05T08:48:48.593Z,4.83
2018-12-05T08:51:17.414Z,4.75
2018-12-05T08:53:46.271Z,4.71
2018-12-05T08:56:15.072Z,4.70
2018-12-05T08:58:44.108Z,4.67
2018-12-05T09:01:13.554Z,4.72
2018-12-05T09:03:42.397Z,4.75
2018-12-05T09:06:11.201Z,4.78
2018-12-05T09:08:41.388Z,4.78
2018-12-05T09:11:11.028Z,4.86
2018-12-05T09:13:39.920Z,4.90
2018-12-05T09:16:08.711Z,5.00
2018-12-05T09:18:37.838Z,5.02
2018-12-05T09:21:06.785Z,5.07
2018-12-05T09:23:35.647Z,5.16
2018-12-05T09:26:04.536Z,5.20
2018-12-05T09:28:34.025Z,5.27
2018-12-05T09:31:02.839Z,5.30
2018-12-05T09:33:31.629Z,5.28
2018-12-05T09:36:00.416Z,5.36
2018-12-05T09:38:30.468Z,5.39
2018-12-05T09:41:00.640Z,5.36
2018-12-05T09:43:29.403Z,5.37
2018-12-05T09:45:58.239Z,5.37
2018-12-05T09:48:27.312Z,5.39
2018-12-05T09:50:56.120Z,5.45
2018-12-05T09:53:24.899Z,5.50
2018-12-05T09:55:53.766Z,5.61
2018-12-05T09:58:22.649Z,5.71
2018-12-05T10:00:51.521Z,5.68
2018-12-05T10:03:20.400Z,5.80
2018-12-05T10:05:49.208Z,5.95
2018-12-05T10:08:18.014Z,6.07
2018-12-05T10:10:46.804Z,6.26
2018-12-05T10:13:15.592Z,6.40
2018-12-05T10:15:44.445Z,6.52
2018-12-05T10:18:13.309Z,6.53
2018-12-05T10:20:42.618Z,6.64
2018-12-05T10:23:12.272Z,6.71
2018-12-05T10:25:42.081Z,6.69
2018-12-05T10:28:11.314Z,6.72
2018-12-05T10:30:40.201Z,6.79
2018-12-05T10:33:09.056Z,6.80
2018-12-05T10:35:37.927Z,6.87
2018-12-05T10:38:06.827Z,6.98
2018-12-05T10:40:36.526Z,7.08
2018-12-05T10:43:05.428Z,7.03
2018-12-05T10:45:34.319Z,6.99
2018-12-05T10:48:03.431Z,6.99
2018-12-05T10:50:33.284Z,6.91
2018-12-05T10:53:02.120Z,6.90
2018-12-05T10:55:31.568Z,6.93
2018-12-05T10:58:00.408Z,6.92
2018-12-05T11:00:35.211Z,6.95
2018-12-05T11:03:09.411Z,6.94
2018-12-05T11:05:43.739Z,7.02
2018-12-05T11:08:17.965Z,7.05
2018-12-05T11:10:52.250Z,7.10
2018-12-05T11:13:26.492Z,7.25
2018-12-05T11:16:12.728Z,7.30
2018-12-05T11:18:46.958Z,7.28
2018-12-05T11:21:21.739Z,7.29
2018-12-05T11:24:56.600Z,7.25
2018-12-05T11:27:25.797Z,7.37
2018-12-05T11:29:56.800Z,7.32
2018-12-05T11:32:25.606Z,7.29
2018-12-05T11:34:54.492Z,7.16
2018-12-05T11:37:23.327Z,7.20
2018-12-05T11:39:54.531Z,7.31
2018-12-05T11:42:23.287Z,7.45
2018-12-05T11:44:52.312Z,7.51
2018-12-05T11:47:23.047Z,7.60
2018-12-05T11:49:53.120Z,7.60
2018-12-05T11:52:22.186Z,7.63
2018-12-05T11:54:51.024Z,7.70
2018-12-05T11:57:19.863Z,7.59
2018-12-05T11:59:49.540Z,7.66
2018-12-05T12:02:22.262Z,7.67
2018-12-05T12:04:47.823Z,7.60
2018-12-05T12:07:16.672Z,7.61
2018-12-05T12:09:45.472Z,7.63
2018-12-05T12:12:19.753Z,7.58
2018-12-05T12:14:48.662Z,7.46
2018-12-05T12:17:29.184Z,7.46
2018-12-05T12:20:01.458Z,7.51
2018-12-05T12:22:30.891Z,7.50
2018-12-05T12:25:04.600Z,7.48
2018-12-05T12:27:33.399Z,7.55
2018-12-05T12:30:02.753Z,7.64
2018-12-05T12:32:33.126Z,7.76
2018-12-05T12:35:01.955Z,7.82
2018-12-05T12:37:31.643Z,7.80
2018-12-05T12:40:00.464Z,7.78
2018-12-05T12:42:29.288Z,7.79
2018-12-05T12:44:58.092Z,7.73
2018-12-05T12:47:26.930Z,7.80
2018-12-05T12:49:55.817Z,7.78
2018-12-05T12:52:24.680Z,7.73
2018-12-05T12:54:53.573Z,7.72
2018-12-05T12:57:23.143Z,7.70
2018-12-05T12:59:51.955Z,7.64
2018-12-05T13:02:20.760Z,7.64
2018-12-05T13:04:50.630Z,7.64
2018-12-05T13:07:19.479Z,7.64
2018-12-05T13:09:48.262Z,7.69
2018-12-05T13:12:23.484Z,7.70
2018-12-05T13:14:52.591Z,7.75
2018-12-05T13:17:21.376Z,7.74
2018-12-05T13:19:50.266Z,7.74
2018-12-05T13:22:19.079Z,7.78
2018-12-05T13:24:47.914Z,7.71
2018-12-05T13:27:16.754Z,7.73
2018-12-05T13:29:45.579Z,7.72
2018-12-05T13:32:14.383Z,7.75
2018-12-05T13:34:43.273Z,7.73
2018-12-05T13:37:12.097Z,7.68
2018-12-05T13:39:40.977Z,7.67
2018-12-05T13:42:10.160Z,7.61
2018-12-05T13:44:39.039Z,7.55
2018-12-05T13:47:08.664Z,7.50
2018-12-05T13:49:38.371Z,7.45
2018-12-05T13:52:07.941Z,7.43
2018-12-05T13:54:37.783Z,7.39
2018-12-05T13:57:07.342Z,7.32
2018-12-05T13:59:36.714Z,7.28
2018-12-05T14:02:05.748Z,7.29
2018-12-05T14:04:34.597Z,7.30
2018-12-05T14:07:03.804Z,7.28
2018-12-05T14:09:32.595Z,7.29
2018-12-05T14:12:01.480Z,7.30
2018-12-05T14:14:30.283Z,7.33
2018-12-05T14:17:00.275Z,7.34
2018-12-05T14:19:29.162Z,7.34
2018-12-05T14:21:58.247Z,7.38
2018-12-05T14:24:27.093Z,7.38
2018-12-05T14:26:56.118Z,7.36
2018-12-05T14:29:26.685Z,7.35
2018-12-05T14:31:56.443Z,7.36
2018-12-05T14:34:27.181Z,7.36
2018-12-05T14:36:56.020Z,7.36
2018-12-05T14:39:24.855Z,7.33
2018-12-05T14:41:53.673Z,7.32
2018-12-05T14:44:25.605Z,7.30
2018-12-05T14:46:54.495Z,7.32
2018-12-05T14:49:23.338Z,7.37
2018-12-05T14:51:52.769Z,7.41
2018-12-05T14:54:22.138Z,7.44
2018-12-05T14:56:50.929Z,7.45
2018-12-05T14:59:22.516Z,7.45
2018-12-05T15:01:52.159Z,7.42
2018-12-05T15:04:20.968Z,7.40
2018-12-05T15:06:49.800Z,7.38
2018-12-05T15:09:19.396Z,7.32
2018-12-05T15:11:48.851Z,7.29
2018-12-05T15:14:18.051Z,7.29
2018-12-05T15:16:47.792Z,7.32
2018-12-05T15:19:17.292Z,7.34
2018-12-05T15:21:46.911Z,7.27
2018-12-05T15:24:22.069Z,7.23
2018-12-05T15:26:59.082Z,7.23
2018-12-05T15:29:27.926Z,7.30
2018-12-05T15:31:56.742Z,7.35
2018-12-05T15:34:25.724Z,7.38
2018-12-05T15:36:54.580Z,7.37
2018-12-05T15:39:24.362Z,7.35
2018-12-05T15:41:53.420Z,7.35
2018-12-05T15:44:23.999Z,7.36
2018-12-05T15:46:54.454Z,7.32
2018-12-05T15:49:31.882Z,7.32
2018-12-05T15:52:03.586Z,7.31
2018-12-05T15:54:33.451Z,7.32
2018-12-05T15:57:09.661Z,7.36
2018-12-05T15:59:33.471Z,7.35
2018-12-05T16:02:11.384Z,7.39
2018-12-05T16:04:41.703Z,7.39
2018-12-05T16:07:10.603Z,7.34
2018-12-05T16:09:39.536Z,7.34
2018-12-05T16:12:08.330Z,7.34
2018-12-05T16:14:38.446Z,7.33
2018-12-05T16:17:07.876Z,7.31
2018-12-05T16:19:36.740Z,7.32
2018-12-05T16:22:05.615Z,7.28
2018-12-05T16:24:34.452Z,7.22
2018-12-05T16:27:03.296Z,7.22
2018-12-05T16:29:33.123Z,7.26
2018-12-05T16:32:03.504Z,7.28
2018-12-05T16:34:32.329Z,7.26
2018-12-05T16:37:01.192Z,7.29
2018-12-05T16:39:30.096Z,7.30
2018-12-05T16:42:00.551Z,7.30
2018-12-05T16:44:31.693Z,7.28
2018-12-05T16:47:00.592Z,7.30
2018-12-05T16:49:29.487Z,7.29
2018-12-05T16:51:58.287Z,7.31
2018-12-05T16:54:27.105Z,7.31
2018-12-05T16:56:55.938Z,7.31
2018-12-05T16:59:24.740Z,7.37
2018-12-05T17:01:53.531Z,7.38
2018-12-05T17:04:22.389Z,7.35
2018-12-05T17:06:51.239Z,7.39
2018-12-05T17:09:25.973Z,7.45
2018-12-05T17:11:49.181Z,7.50
2018-12-05T17:14:18.180Z,7.52
2018-12-05T17:16:47.479Z,7.54
2018-12-05T17:19:16.300Z,7.56
2018-12-05T17:21:47.197Z,7.56
2018-12-05T17:24:15.996Z,7.53
2018-12-05T17:26:44.905Z,7.58
2018-12-05T17:29:13.741Z,7.58
2018-12-05T17:31:42.645Z,7.57
2018-12-05T17:34:11.471Z,7.53
2018-12-05T17:36:40.311Z,7.57
2018-12-05T17:39:10.257Z,7.58
2018-12-05T17:41:39.065Z,7.58
2018-12-05T17:44:08.803Z,7.60
2018-12-05T17:46:39.231Z,7.61
2018-12-05T17:49:08.092Z,7.56
2018-12-05T17:51:36.946Z,7.58
2018-12-05T17:54:05.772Z,7.62
2018-12-05T17:56:35.146Z,7.64
2018-12-05T17:59:03.485Z,7.67
2018-12-05T18:01:32.328Z,7.70
2018-12-05T18:04:01.155Z,7.68
2018-12-05T18:06:29.946Z,7.70
2018-12-05T18:08:58.759Z,7.72
2018-12-05T18:11:27.599Z,7.73
2018-12-05T18:13:56.742Z,7.74
2018-12-05T18:16:25.655Z,7.79
2018-12-05T18:18:55.139Z,7.82
2018-12-05T18:21:23.936Z,7.86
2018-12-05T18:23:53.395Z,7.86
2018-12-05T18:26:22.164Z,7.84
2018-12-05T18:28:50.973Z,7.80
2018-12-05T18:31:19.881Z,7.82
2018-12-05T18:33:48.798Z,7.83
2018-12-05T18:36:17.699Z,7.83
2018-12-05T18:38:46.515Z,7.84
2018-12-05T18:41:15.326Z,7.85
2018-12-05T18:43:44.234Z,7.81
2018-12-05T18:46:13.061Z,7.82
2018-12-05T18:48:42.101Z,7.86
2018-12-05T18:51:10.926Z,7.84
2018-12-05T18:53:39.836Z,7.86
2018-12-05T18:56:08.744Z,7.84
2018-12-05T18:58:37.572Z,7.87
2018-12-05T19:01:06.467Z,7.91
2018-12-05T19:03:35.355Z,7.94
2018-12-05T19:06:04.191Z,7.92
2018-12-05T19:08:34.394Z,7.87
2018-12-05T19:11:01.800Z,7.81
2018-12-05T19:13:30.631Z,7.84
2018-12-05T19:15:59.468Z,7.80
2018-12-05T19:18:28.302Z,8.03
2018-12-05T19:20:58.765Z,7.93
2018-12-05T19:23:27.644Z,7.93
2018-12-05T19:25:56.466Z,7.96
2018-12-05T19:28:25.263Z,7.92
2018-12-05T19:30:54.100Z,7.95
2018-12-05T19:33:23.180Z,7.96
2018-12-05T19:35:52.058Z,7.94
2018-12-05T19:38:20.919Z,8.02
2018-12-05T19:40:49.783Z,8.04
2018-12-05T19:43:18.754Z,8.08
2018-12-05T19:45:47.600Z,8.16
2018-12-05T19:48:20.191Z,8.13
2018-12-05T19:50:51.219Z,8.16
2018-12-05T19:53:20.079Z,8.12
2018-12-05T19:55:48.939Z,8.11
2018-12-05T19:58:17.759Z,8.13
2018-12-05T20:00:46.548Z,8.14
2018-12-05T20:03:15.359Z,8.13
2018-12-05T20:05:44.517Z,8.15
2018-12-05T20:08:13.344Z,8.14
2018-12-05T20:10:42.203Z,8.10
2018-12-05T20:13:11.411Z,8.11
2018-12-05T20:15:40.223Z,8.08
2018-12-05T20:18:09.321Z,8.12
2018-12-05T20:20:38.215Z,8.14
2018-12-05T20:23:08.634Z,8.13
2018-12-05T20:25:37.418Z,8.14
2018-12-05T20:28:06.372Z,8.19
2018-12-05T20:30:35.248Z,8.19
2018-12-05T20:33:04.936Z,8.22
2018-12-05T20:35:35.140Z,8.23
2018-12-05T20:38:04.897Z,8.25
2018-12-05T20:40:35.371Z,8.23
2018-12-05T20:43:04.189Z,8.26
2018-12-05T20:45:33.038Z,8.28
2018-12-05T20:48:02.541Z,8.22
2018-12-05T20:50:31.887Z,8.27
2018-12-05T20:53:01.346Z,8.30
2018-12-05T20:55:30.233Z,8.31
2018-12-05T20:57:59.975Z,8.34
2018-12-05T21:00:28.803Z,8.35
2018-12-05T21:02:57.659Z,8.33
2018-12-05T21:05:27.272Z,8.35
2018-12-05T21:07:56.103Z,8.37
2018-12-05T21:10:24.916Z,8.34
2018-12-05T21:12:53.742Z,8.35
2018-12-05T21:15:24.639Z,8.38
2018-12-05T21:17:53.470Z,8.40
2018-12-05T21:20:26.461Z,8.41
2018-12-05T21:22:55.312Z,8.43
2018-12-05T21:25:24.337Z,8.44
2018-12-05T21:27:53.216Z,8.43
2018-12-05T21:30:22.091Z,8.42
2018-12-05T21:32:50.942Z,8.43
2018-12-05T21:35:19.770Z,8.43
2018-12-05T21:37:48.593Z,8.41
2018-12-05T21:40:18.600Z,8.39
2018-12-05T21:42:47.488Z,8.37
2018-12-05T21:45:16.347Z,8.39
2018-12-05T21:47:45.207Z,8.39
2018-12-05T21:50:14.048Z,8.39
2018-12-05T21:52:42.956Z,8.38
2018-12-05T21:55:11.910Z,8.41
2018-12-05T21:57:40.743Z,8.37
2018-12-05T22:00:11.788Z,8.38
2018-12-05T22:02:40.631Z,8.43
2018-12-05T22:05:09.499Z,8.45
2018-12-05T22:07:38.370Z,8.44
2018-12-05T22:10:08.808Z,8.48
2018-12-05T22:12:37.589Z,8.44
2018-12-05T22:15:06.662Z,8.47
2018-12-05T22:17:35.552Z,8.52
2018-12-05T22:20:05.231Z,8.52
2018-12-05T22:22:34.072Z,8.49
2018-12-05T22:25:02.947Z,8.52
2018-12-05T22:27:31.834Z,8.55
2018-12-05T22:30:00.672Z,8.55
2018-12-05T22:32:29.469Z,8.52
2018-12-05T22:34:58.275Z,8.51
2018-12-05T22:37:27.154Z,8.50
2018-12-05T22:39:55.974Z,8.49
2018-12-05T22:42:26.016Z,8.48
2018-12-05T22:44:54.884Z,8.51
2018-12-05T22:47:23.690Z,8.49
2018-12-05T22:49:52.507Z,8.51
2018-12-05T22:52:21.912Z,8.55
2018-12-05T22:54:50.751Z,8.59
2018-12-05T22:57:19.640Z,8.61
2018-12-05T22:59:48.450Z,8.62
2018-12-05T23:02:17.283Z,8.58
2018-12-05T23:04:46.157Z,8.61
2018-12-05T23:07:15.606Z,8.59
2018-12-05T23:09:44.527Z,8.58
2018-12-05T23:12:14.138Z,8.57
2018-12-05T23:14:44.228Z,8.54
2018-12-05T23:17:14.811Z,8.56
2018-12-05T23:19:44.321Z,8.58
2018-12-05T23:22:13.113Z,8.64
2018-12-05T23:24:41.999Z,8.67
2018-12-05T23:27:11.181Z,8.68
2018-12-05T23:29:39.991Z,8.65
2018-12-05T23:32:08.852Z,8.67
2018-12-05T23:34:37.668Z,8.72
2018-12-05T23:37:06.555Z,8.70
2018-12-05T23:39:35.387Z,8.71
2018-12-05T23:42:04.513Z,8.71
2018-12-05T23:44:33.328Z,8.75
2018-12-05T23:47:02.956Z,8.77
2018-12-05T23:49:31.766Z,8.78
2018-12-05T23:52:00.584Z,8.76
2018-12-05T23:54:29.447Z,8.75
2018-12-05T23:56:58.246Z,8.73
2018-12-05T23:59:27.063Z,8.79
